createdAt,value
2023-09-07T00:01:08.431Z,97603.31
2023-09-07T00:03:37.743Z,97606.91
2023-09-07T00:06:05.365Z,97599.03
2023-09-07T00:08:33.087Z,97596.63
2023-09-07T00:11:04.670Z,97592.91
2023-09-07T00:13:32.425Z,97596.56
2023-09-07T00:16:00.893Z,97592.69
2023-09-07T00:18:28.921Z,97592.09
2023-09-07T00:20:58.677Z,97589.66
2023-09-07T00:23:25.959Z,97593.09
2023-09-07T00:25:53.572Z,97590.00
2023-09-07T00:28:21.386Z,97588.13
2023-09-07T00:30:49.307Z,97592.91
2023-09-07T00:33:17.506Z,97583.13
2023-09-07T00:35:45.077Z,97583.72
2023-09-07T00:38:14.644Z,97582.28
2023-09-07T00:40:44.887Z,97585.44
2023-09-07T00:43:12.905Z,97580.44
2023-09-07T00:45:41.435Z,97583.81
2023-09-07T00:48:09.916Z,97582.81
2023-09-07T00:50:37.634Z,97572.69
2023-09-07T00:53:05.344Z,97578.22
2023-09-07T00:55:35.141Z,97578.09
2023-09-07T00:58:03.701Z,97580.44
2023-09-07T01:00:33.549Z,97566.03
2023-09-07T01:03:01.234Z,97567.00
2023-09-07T01:05:35.515Z,97568.00
2023-09-07T01:08:11.011Z,97566.81
2023-09-07T01:10:40.145Z,97570.00
2023-09-07T01:13:07.771Z,97568.75
2023-09-07T01:15:35.548Z,97561.84
2023-09-07T01:18:17.943Z,97564.22
2023-09-07T01:20:53.953Z,97559.53
2023-09-07T01:23:24.722Z,97560.00
2023-09-07T01:25:54.336Z,97555.59
2023-09-07T01:28:22.142Z,97554.66
2023-09-07T01:30:49.691Z,97560.53
2023-09-07T01:33:17.293Z,97563.91
2023-09-07T01:35:46.550Z,97550.25
2023-09-07T01:38:14.781Z,97549.75
2023-09-07T01:40:44.284Z,97554.53
2023-09-07T01:43:12.575Z,97555.09
2023-09-07T01:45:40.240Z,97551.56
2023-09-07T01:48:10.303Z,97551.06
2023-09-07T01:50:37.993Z,97548.75
2023-09-07T01:53:05.646Z,97552.59
2023-09-07T01:55:33.714Z,97546.88
2023-09-07T01:58:03.231Z,97558.41
2023-09-07T02:00:30.858Z,97551.53
2023-09-07T02:02:58.549Z,97562.22
2023-09-07T02:05:26.168Z,97554.34
2023-09-07T02:07:53.794Z,97554.00
2023-09-07T02:10:21.429Z,97559.81
2023-09-07T02:12:48.928Z,97556.22
2023-09-07T02:15:18.964Z,97559.28
2023-09-07T02:17:46.990Z,97553.13
2023-09-07T02:20:18.132Z,97551.25
2023-09-07T02:22:45.914Z,97560.81
2023-09-07T02:25:14.130Z,97547.91
2023-09-07T02:27:41.981Z,97543.06
2023-09-07T02:30:10.509Z,97547.28
2023-09-07T02:32:39.657Z,97536.38
2023-09-07T02:35:07.892Z,97542.16
2023-09-07T02:37:37.048Z,97545.81
2023-09-07T02:40:05.670Z,97544.50
2023-09-07T02:42:33.220Z,97539.16
2023-09-07T02:45:00.814Z,97536.94
2023-09-07T02:47:28.736Z,97536.75
2023-09-07T02:49:57.779Z,97522.78
2023-09-07T02:52:25.339Z,97531.47
2023-09-07T02:54:53.310Z,97536.44
2023-09-07T02:57:21.677Z,97528.19
2023-09-07T02:59:49.376Z,97538.66
2023-09-07T03:02:16.845Z,97535.50
2023-09-07T03:04:44.605Z,97535.75
2023-09-07T03:07:14.470Z,97532.22
2023-09-07T03:09:42.036Z,97539.53
2023-09-07T03:12:10.472Z,97529.59
2023-09-07T03:14:38.297Z,97527.53
2023-09-07T03:17:06.015Z,97522.81
2023-09-07T03:19:33.871Z,97532.72
2023-09-07T03:22:01.706Z,97523.22
2023-09-07T03:24:30.764Z,97524.88
2023-09-07T03:26:58.689Z,97529.00
2023-09-07T03:29:27.232Z,97525.28
2023-09-07T03:31:55.034Z,97526.75
2023-09-07T03:34:23.030Z,97525.88
2023-09-07T03:36:50.594Z,97524.41
2023-09-07T03:39:18.324Z,97526.72
2023-09-07T03:41:47.354Z,97527.75
2023-09-07T03:44:15.257Z,97528.53
2023-09-07T03:46:43.387Z,97527.47
2023-09-07T03:49:11.297Z,97528.78
2023-09-07T03:51:39.082Z,97530.66
2023-09-07T03:54:06.832Z,97532.72
2023-09-07T03:56:34.519Z,97527.31
2023-09-07T03:59:03.809Z,97528.13
2023-09-07T04:01:31.739Z,97529.81
2023-09-07T04:04:00.058Z,97533.31
2023-09-07T04:06:28.115Z,97527.28
2023-09-07T04:08:55.637Z,97532.69
2023-09-07T04:11:23.192Z,97536.41
2023-09-07T04:13:50.811Z,97534.75
2023-09-07T04:16:19.900Z,97529.53
2023-09-07T04:18:47.627Z,97525.22
2023-09-07T04:21:15.351Z,97533.09
2023-09-07T04:23:42.918Z,97531.88
2023-09-07T04:26:12.050Z,97527.13
2023-09-07T04:28:40.020Z,97538.53
2023-09-07T04:31:08.358Z,97530.63
2023-09-07T04:33:37.518Z,97528.16
2023-09-07T04:36:09.721Z,97525.88
2023-09-07T04:38:37.546Z,97524.84
2023-09-07T04:41:09.332Z,97525.19
2023-09-07T04:43:37.252Z,97522.63
2023-09-07T04:46:05.125Z,97523.56
2023-09-07T04:48:33.203Z,97524.19
2023-09-07T04:51:03.179Z,97517.78
2023-09-07T04:53:32.566Z,97523.38
2023-09-07T04:56:00.656Z,97523.38
2023-09-07T04:58:28.338Z,97517.72
2023-09-07T05:01:02.703Z,97524.09
2023-09-07T05:03:31.434Z,97516.47
2023-09-07T05:05:59.282Z,97518.97
2023-09-07T05:08:28.737Z,97513.16
2023-09-07T05:10:56.317Z,97519.72
2023-09-07T05:13:24.397Z,97516.72
2023-09-07T05:15:53.279Z,97508.94
2023-09-07T05:18:21.704Z,97510.53
2023-09-07T05:20:49.454Z,97513.53
2023-09-07T05:23:17.732Z,97509.44
2023-09-07T05:25:47.033Z,97503.41
2023-09-07T05:28:15.613Z,97503.78
2023-09-07T05:30:43.856Z,97503.22
2023-09-07T05:33:12.897Z,97501.75
2023-09-07T05:35:40.961Z,97498.94
2023-09-07T05:38:09.256Z,97496.25
2023-09-07T05:40:38.495Z,97501.72
2023-09-07T05:43:08.205Z,97489.91
2023-09-07T05:45:37.928Z,97487.47
2023-09-07T05:48:07.596Z,97495.09
2023-09-07T05:50:36.397Z,97491.75
2023-09-07T05:53:04.846Z,97494.03
2023-09-07T05:55:33.782Z,97486.81
2023-09-07T05:58:09.234Z,97483.66
2023-09-07T06:00:40.499Z,97485.31
2023-09-07T06:03:09.175Z,97479.84
2023-09-07T06:05:38.018Z,97477.69
2023-09-07T06:08:06.934Z,97478.97
2023-09-07T06:10:34.678Z,97481.34
2023-09-07T06:13:04.307Z,97476.16
2023-09-07T06:15:34.186Z,97484.19
2023-09-07T06:18:02.275Z,97478.78
2023-09-07T06:20:30.070Z,97473.72
2023-09-07T06:23:00.117Z,97472.94
2023-09-07T06:25:28.099Z,97474.34
2023-09-07T06:27:56.591Z,97474.34
2023-09-07T06:30:25.476Z,97479.66
2023-09-07T06:32:54.902Z,97478.91
2023-09-07T06:35:23.984Z,97471.91
2023-09-07T06:37:52.231Z,97474.19
2023-09-07T06:40:23.484Z,97471.50
2023-09-07T06:42:54.816Z,97468.00
2023-09-07T06:45:23.841Z,97477.78
2023-09-07T06:47:51.683Z,97469.81
2023-09-07T06:50:23.884Z,97462.63
2023-09-07T06:52:52.348Z,97459.72
2023-09-07T06:55:20.712Z,97469.78
2023-09-07T06:57:48.452Z,97465.38
2023-09-07T07:00:16.492Z,97461.69
2023-09-07T07:02:44.764Z,97459.78
2023-09-07T07:05:13.147Z,97458.28
2023-09-07T07:07:43.320Z,97457.56
2023-09-07T07:10:13.209Z,97446.38
2023-09-07T07:12:42.076Z,97448.28
2023-09-07T07:15:10.736Z,97453.94
2023-09-07T07:17:39.016Z,97442.06
2023-09-07T07:20:08.430Z,97448.66
2023-09-07T07:22:36.560Z,97443.91
2023-09-07T07:25:07.152Z,97436.72
2023-09-07T07:27:35.566Z,97443.84
2023-09-07T07:30:03.735Z,97438.25
2023-09-07T07:32:31.441Z,97431.09
2023-09-07T07:34:59.220Z,97433.84
2023-09-07T07:37:27.387Z,97435.09
2023-09-07T07:39:54.958Z,97436.59
2023-09-07T07:42:24.119Z,97436.72
2023-09-07T07:44:51.923Z,97434.56
2023-09-07T07:47:19.849Z,97437.09
2023-09-07T07:49:47.917Z,97437.78
2023-09-07T07:52:15.495Z,97430.22
2023-09-07T07:54:43.222Z,97433.72
2023-09-07T07:57:11.690Z,97431.28
2023-09-07T07:59:41.075Z,97422.31
2023-09-07T08:02:09.329Z,97424.38
2023-09-07T08:04:37.429Z,97418.25
2023-09-07T08:07:07.099Z,97416.31
2023-09-07T08:09:35.792Z,97420.03
2023-09-07T08:12:04.554Z,97417.09
2023-09-07T08:14:34.720Z,97419.97
2023-09-07T08:17:06.068Z,97420.06
2023-09-07T08:19:34.031Z,97414.94
2023-09-07T08:22:03.099Z,97414.88
2023-09-07T08:24:30.772Z,97412.81
2023-09-07T08:26:58.353Z,97422.75
2023-09-07T08:29:26.198Z,97413.69
2023-09-07T08:31:57.245Z,97408.63
2023-09-07T08:34:28.548Z,97405.22
2023-09-07T08:36:56.362Z,97408.50
2023-09-07T08:39:24.029Z,97408.88
2023-09-07T08:42:01.305Z,97402.69
2023-09-07T08:44:33.867Z,97400.91
2023-09-07T08:47:03.863Z,97392.75
2023-09-07T08:49:33.864Z,97389.47
2023-09-07T08:52:04.142Z,97393.78
2023-09-07T08:54:34.326Z,97388.78
2023-09-07T08:57:04.325Z,97395.63
2023-09-07T08:59:32.088Z,97387.25
2023-09-07T09:01:59.938Z,97384.00
2023-09-07T09:04:29.221Z,97381.13
2023-09-07T09:06:58.418Z,97383.81
2023-09-07T09:09:26.499Z,97381.97
2023-09-07T09:11:54.161Z,97383.16
2023-09-07T09:14:21.829Z,97375.69
2023-09-07T09:16:53.098Z,97374.34
2023-09-07T09:19:20.848Z,97381.72
2023-09-07T09:21:48.451Z,97380.13
2023-09-07T09:24:17.913Z,97379.56
2023-09-07T09:26:46.488Z,97376.66
2023-09-07T09:29:14.109Z,97377.44
2023-09-07T09:31:41.868Z,97383.88
2023-09-07T09:34:10.963Z,97383.50
2023-09-07T09:36:38.531Z,97373.13
2023-09-07T09:39:06.386Z,97366.88
2023-09-07T09:41:36.418Z,97370.81
2023-09-07T09:44:05.042Z,97370.34
2023-09-07T09:46:33.878Z,97366.69
2023-09-07T09:49:03.081Z,97370.69
2023-09-07T09:51:32.052Z,97362.91
2023-09-07T09:53:59.956Z,97359.13
2023-09-07T09:56:27.693Z,97376.72
2023-09-07T09:58:56.712Z,97370.47
2023-09-07T10:01:24.376Z,97370.66
2023-09-07T10:03:53.231Z,97371.47
2023-09-07T10:06:24.594Z,97369.13
2023-09-07T10:08:56.814Z,97366.94
2023-09-07T10:11:34.895Z,97372.91
2023-09-07T10:14:05.688Z,97364.59
2023-09-07T10:16:43.456Z,97369.53
2023-09-07T10:19:18.893Z,97367.94
2023-09-07T10:21:46.739Z,97364.72
2023-09-07T10:24:24.981Z,97360.91
2023-09-07T10:26:58.514Z,97365.81
2023-09-07T10:29:29.286Z,97359.50
2023-09-07T10:31:56.877Z,97364.59
2023-09-07T10:34:36.269Z,97360.00
2023-09-07T10:37:05.125Z,97358.28
2023-09-07T10:39:33.714Z,97364.56
2023-09-07T10:42:01.874Z,97356.50
2023-09-07T10:44:30.981Z,97361.63
2023-09-07T10:46:59.306Z,97361.91
2023-09-07T10:49:27.366Z,97354.78
2023-09-07T10:51:56.034Z,97351.78
2023-09-07T10:54:25.922Z,97355.22
2023-09-07T10:56:55.145Z,97346.31
2023-09-07T10:59:23.610Z,97346.50
2023-09-07T11:01:52.589Z,97349.53
2023-09-07T11:04:20.915Z,97347.38
2023-09-07T11:06:49.452Z,97353.16
2023-09-07T11:09:17.619Z,97350.69
2023-09-07T11:11:48.358Z,97355.41
2023-09-07T11:14:16.013Z,97356.06
2023-09-07T11:16:43.749Z,97346.25
2023-09-07T11:19:14.788Z,97347.06
2023-09-07T11:21:42.448Z,97346.34
2023-09-07T11:24:10.107Z,97346.97
2023-09-07T11:26:44.451Z,97343.72
2023-09-07T11:29:15.583Z,97343.03
2023-09-07T11:31:43.706Z,97346.84
2023-09-07T11:34:14.156Z,97343.19
2023-09-07T11:36:41.983Z,97342.97
2023-09-07T11:39:11.916Z,97345.47
2023-09-07T11:41:43.063Z,97345.66
2023-09-07T11:44:11.896Z,97343.13
2023-09-07T11:46:40.797Z,97347.34
2023-09-07T11:49:08.755Z,97345.22
2023-09-07T11:51:38.057Z,97340.25
2023-09-07T11:54:07.170Z,97342.75
2023-09-07T11:56:35.239Z,97334.34
2023-09-07T11:59:03.951Z,97336.13
2023-09-07T12:01:31.934Z,97336.22
2023-09-07T12:03:59.799Z,97331.88
2023-09-07T12:06:28.288Z,97336.81
2023-09-07T12:09:04.692Z,97332.66
2023-09-07T12:11:32.354Z,97329.09
2023-09-07T12:14:00.411Z,97324.84
2023-09-07T12:16:29.593Z,97327.97
2023-09-07T12:18:57.434Z,97330.25
2023-09-07T12:21:25.238Z,97329.47
2023-09-07T12:23:52.902Z,97327.38
2023-09-07T12:26:22.341Z,97320.13
2023-09-07T12:28:50.233Z,97325.16
2023-09-07T12:31:18.131Z,97319.19
2023-09-07T12:33:45.832Z,97315.16
2023-09-07T12:36:13.488Z,97320.50
2023-09-07T12:38:41.233Z,97310.78
2023-09-07T12:41:08.929Z,97311.44
2023-09-07T12:43:38.032Z,97305.72
2023-09-07T12:46:05.767Z,97311.47
2023-09-07T12:48:33.500Z,97307.81
2023-09-07T12:51:02.154Z,97309.25
2023-09-07T12:53:30.622Z,97311.94
2023-09-07T12:55:58.656Z,97310.88
2023-09-07T12:58:26.739Z,97308.19
2023-09-07T13:00:56.075Z,97306.41
2023-09-07T13:03:24.377Z,97310.59
2023-09-07T13:05:52.055Z,97298.97
2023-09-07T13:08:19.771Z,97303.78
2023-09-07T13:10:47.300Z,97297.41
2023-09-07T13:13:14.794Z,97297.03
2023-09-07T13:15:43.298Z,97304.31
2023-09-07T13:18:14.711Z,97297.88
2023-09-07T13:20:43.964Z,97293.44
2023-09-07T13:23:12.024Z,97300.19
2023-09-07T13:25:39.731Z,97295.16
2023-09-07T13:28:07.345Z,97295.84
2023-09-07T13:30:34.945Z,97296.72
2023-09-07T13:33:02.657Z,97300.94
2023-09-07T13:35:31.782Z,97293.66
2023-09-07T13:37:59.345Z,97290.91
2023-09-07T13:40:26.820Z,97298.28
2023-09-07T13:42:54.533Z,97294.13
2023-09-07T13:45:22.555Z,97293.06
2023-09-07T13:47:50.497Z,97288.88
2023-09-07T13:50:18.179Z,97298.00
2023-09-07T13:52:49.338Z,97288.28
2023-09-07T13:55:17.476Z,97285.16
2023-09-07T13:57:45.211Z,97288.66
2023-09-07T14:00:13.690Z,97293.16
2023-09-07T14:02:44.267Z,97286.41
2023-09-07T14:05:13.831Z,97290.31
2023-09-07T14:07:41.575Z,97289.50
2023-09-07T14:10:10.962Z,97288.19
2023-09-07T14:12:38.502Z,97291.81
2023-09-07T14:15:07.471Z,97288.06
2023-09-07T14:17:35.236Z,97291.44
2023-09-07T14:20:02.783Z,97295.69
2023-09-07T14:22:31.758Z,97301.00
2023-09-07T14:25:00.267Z,97294.34
2023-09-07T14:27:29.566Z,97296.97
2023-09-07T14:29:57.355Z,97295.16
2023-09-07T14:32:24.989Z,97303.09
2023-09-07T14:34:52.586Z,97300.88
2023-09-07T14:37:20.269Z,97301.00
2023-09-07T14:39:48.385Z,97307.00
2023-09-07T14:42:16.282Z,97304.00
2023-09-07T14:44:46.091Z,97317.72
2023-09-07T14:47:13.834Z,97314.63
2023-09-07T14:49:42.456Z,97314.31
2023-09-07T14:52:10.600Z,97318.00
2023-09-07T14:54:38.164Z,97319.81
2023-09-07T14:57:06.022Z,97317.13
2023-09-07T14:59:33.914Z,97321.66
2023-09-07T15:02:06.014Z,97322.56
2023-09-07T15:04:35.715Z,97325.84
2023-09-07T15:07:04.544Z,97321.22
2023-09-07T15:09:32.582Z,97325.97
2023-09-07T15:12:00.921Z,97331.34
2023-09-07T15:14:29.597Z,97328.66
2023-09-07T15:17:02.395Z,97322.13
2023-09-07T15:19:30.566Z,97321.59
2023-09-07T15:21:58.904Z,97323.31
2023-09-07T15:24:26.908Z,97312.47
2023-09-07T15:26:55.257Z,97322.72
2023-09-07T15:29:23.129Z,97326.63
2023-09-07T15:31:50.935Z,97324.25
2023-09-07T15:34:20.451Z,97327.78
2023-09-07T15:36:48.725Z,97328.97
2023-09-07T15:39:16.584Z,97327.03
2023-09-07T15:41:44.169Z,97321.34
2023-09-07T15:44:11.945Z,97326.81
2023-09-07T15:46:39.553Z,97327.97
2023-09-07T15:49:07.193Z,97330.28
2023-09-07T15:51:36.245Z,97329.63
2023-09-07T15:54:04.057Z,97326.41
2023-09-07T15:56:31.778Z,97322.19
2023-09-07T15:58:59.359Z,97324.34
2023-09-07T16:01:28.041Z,97318.06
2023-09-07T16:03:55.746Z,97320.41
2023-09-07T16:06:23.457Z,97318.16
2023-09-07T16:08:52.521Z,97320.91
2023-09-07T16:11:20.209Z,97318.06
2023-09-07T16:13:47.865Z,97315.56
2023-09-07T16:16:15.435Z,97319.22
2023-09-07T16:18:43.042Z,97316.44
2023-09-07T16:21:10.780Z,97320.84
2023-09-07T16:23:38.892Z,97321.72
2023-09-07T16:26:07.943Z,97319.94
2023-09-07T16:28:35.477Z,97313.75
2023-09-07T16:31:02.982Z,97320.59
2023-09-07T16:33:30.541Z,97305.78
2023-09-07T16:35:58.024Z,97312.28
2023-09-07T16:38:26.141Z,97318.75
2023-09-07T16:40:54.355Z,97321.09
2023-09-07T16:43:23.430Z,97324.53
2023-09-07T16:45:58.112Z,97320.50
2023-09-07T16:48:25.774Z,97320.19
2023-09-07T16:50:53.367Z,97323.91
2023-09-07T16:53:21.586Z,97316.06
2023-09-07T16:55:50.084Z,97318.91
2023-09-07T16:58:18.590Z,97327.16
2023-09-07T17:00:48.013Z,97323.25
2023-09-07T17:03:15.685Z,97325.81
2023-09-07T17:05:43.550Z,97326.56
2023-09-07T17:08:12.326Z,97316.97
2023-09-07T17:10:39.827Z,97317.50
2023-09-07T17:13:08.160Z,97319.28
2023-09-07T17:15:36.552Z,97316.00
2023-09-07T17:18:06.893Z,97320.19
2023-09-07T17:20:37.044Z,97319.81
2023-09-07T17:23:04.470Z,97315.81
2023-09-07T17:25:34.511Z,97317.19
2023-09-07T17:28:03.332Z,97323.50
2023-09-07T17:30:35.271Z,97321.38
2023-09-07T17:33:03.122Z,97324.75
2023-09-07T17:35:36.120Z,97317.84
2023-09-07T17:38:04.399Z,97318.81
2023-09-07T17:40:32.091Z,97315.88
2023-09-07T17:42:59.686Z,97309.38
2023-09-07T17:45:27.757Z,97312.84
2023-09-07T17:47:55.724Z,97319.06
2023-09-07T17:50:23.386Z,97310.56
2023-09-07T17:52:52.350Z,97312.81
2023-09-07T17:55:20.416Z,97316.88
2023-09-07T17:57:47.996Z,97315.97
2023-09-07T18:00:17.067Z,97305.94
2023-09-07T18:02:45.871Z,97307.16
2023-09-07T18:05:13.876Z,97302.19
2023-09-07T18:07:41.994Z,97304.69
2023-09-07T18:10:12.695Z,97293.88
2023-09-07T18:12:40.220Z,97300.84
2023-09-07T18:15:08.658Z,97297.03
2023-09-07T18:17:37.534Z,97292.41
2023-09-07T18:20:05.632Z,97289.47
2023-09-07T18:22:33.732Z,97285.81
2023-09-07T18:25:01.954Z,97284.91
2023-09-07T18:27:30.978Z,97284.97
2023-09-07T18:29:59.466Z,97283.56
2023-09-07T18:32:26.931Z,97286.53
2023-09-07T18:34:54.668Z,97288.72
2023-09-07T18:37:22.387Z,97284.97
2023-09-07T18:39:49.944Z,97286.59
2023-09-07T18:42:18.132Z,97282.28
2023-09-07T18:44:47.752Z,97271.81
2023-09-07T18:47:15.308Z,97266.28
2023-09-07T18:49:43.559Z,97265.09
2023-09-07T18:52:12.075Z,97271.50
2023-09-07T18:54:40.242Z,97270.63
2023-09-07T18:57:09.664Z,97266.81
2023-09-07T18:59:37.182Z,97260.44
2023-09-07T19:02:06.811Z,97265.22
2023-09-07T19:04:34.750Z,97266.34
2023-09-07T19:07:02.932Z,97268.44
2023-09-07T19:09:30.531Z,97270.47
2023-09-07T19:11:57.981Z,97271.59
2023-09-07T19:14:25.548Z,97266.13
2023-09-07T19:16:53.190Z,97271.91
2023-09-07T19:19:22.293Z,97263.66
2023-09-07T19:21:49.908Z,97262.75
2023-09-07T19:24:17.451Z,97259.00
2023-09-07T19:26:44.969Z,97253.31
2023-09-07T19:29:12.746Z,97261.50
2023-09-07T19:31:40.735Z,97258.94
2023-09-07T19:34:09.535Z,97257.06
2023-09-07T19:36:39.215Z,97259.38
2023-09-07T19:39:07.584Z,97255.72
2023-09-07T19:41:42.690Z,97262.09
2023-09-07T19:44:13.227Z,97263.72
2023-09-07T19:46:41.271Z,97248.91
2023-09-07T19:49:08.941Z,97253.53
2023-09-07T19:51:38.639Z,97261.72
2023-09-07T19:54:07.007Z,97253.53
2023-09-07T19:56:34.713Z,97246.78
2023-09-07T19:59:02.240Z,97251.75
2023-09-07T20:01:29.846Z,97255.41
2023-09-07T20:03:57.596Z,97251.28
2023-09-07T20:06:25.970Z,97252.47
2023-09-07T20:08:55.244Z,97249.34
2023-09-07T20:11:23.171Z,97248.16
2023-09-07T20:13:51.601Z,97242.09
2023-09-07T20:16:19.307Z,97240.06
2023-09-07T20:18:47.130Z,97239.41
2023-09-07T20:21:14.832Z,97234.38
2023-09-07T20:23:42.438Z,97240.94
2023-09-07T20:26:11.529Z,97241.78
2023-09-07T20:28:39.508Z,97241.88
2023-09-07T20:31:07.416Z,97235.69
2023-09-07T20:33:35.022Z,97235.50
2023-09-07T20:36:03.256Z,97233.63
2023-09-07T20:38:31.011Z,97234.88
2023-09-07T20:40:58.699Z,97232.78
2023-09-07T20:43:27.722Z,97225.28
2023-09-07T20:45:55.333Z,97226.53
2023-09-07T20:48:23.523Z,97228.91
2023-09-07T20:50:51.760Z,97225.13
2023-09-07T20:53:19.813Z,97227.25
2023-09-07T20:55:48.317Z,97222.25
2023-09-07T20:58:16.301Z,97217.25
2023-09-07T21:00:45.807Z,97223.13
2023-09-07T21:03:13.909Z,97218.53
2023-09-07T21:05:41.744Z,97223.84
2023-09-07T21:08:09.381Z,97216.63
2023-09-07T21:10:37.020Z,97216.44
2023-09-07T21:13:04.981Z,97211.72
2023-09-07T21:15:32.825Z,97208.28
2023-09-07T21:18:01.980Z,97213.59
2023-09-07T21:20:29.695Z,97221.75
2023-09-07T21:22:57.368Z,97222.41
2023-09-07T21:25:24.939Z,97218.88
2023-09-07T21:27:52.452Z,97223.53
2023-09-07T21:30:20.129Z,97216.97
2023-09-07T21:32:47.756Z,97216.81
2023-09-07T21:35:17.050Z,97224.22
2023-09-07T21:37:44.636Z,97224.06
2023-09-07T21:40:12.697Z,97212.16
2023-09-07T21:42:40.338Z,97222.13
2023-09-07T21:45:08.185Z,97220.22
2023-09-07T21:47:35.765Z,97230.34
2023-09-07T21:50:03.724Z,97231.25
2023-09-07T21:52:32.768Z,97226.59
2023-09-07T21:55:00.433Z,97226.28
2023-09-07T21:57:28.377Z,97230.13
2023-09-07T21:59:55.949Z,97232.50
2023-09-07T22:02:24.153Z,97229.16
2023-09-07T22:04:52.497Z,97225.47
2023-09-07T22:07:20.123Z,97222.03
2023-09-07T22:09:49.170Z,97228.00
2023-09-07T22:12:16.760Z,97231.06
2023-09-07T22:14:44.282Z,97228.84
2023-09-07T22:17:11.795Z,97223.34
2023-09-07T22:19:40.451Z,97235.31
2023-09-07T22:22:08.030Z,97236.75
2023-09-07T22:24:35.808Z,97228.66
2023-09-07T22:27:05.327Z,97233.13
2023-09-07T22:29:32.724Z,97233.44
2023-09-07T22:32:00.822Z,97228.06
2023-09-07T22:34:29.050Z,97228.84
2023-09-07T22:36:56.720Z,97230.84
2023-09-07T22:39:24.314Z,97228.75
2023-09-07T22:41:51.863Z,97230.91
2023-09-07T22:44:21.066Z,97241.53
2023-09-07T22:46:48.625Z,97247.41
2023-09-07T22:49:16.158Z,97251.66
2023-09-07T22:51:43.912Z,97247.47
2023-09-07T22:54:12.129Z,97255.78
2023-09-07T22:56:40.646Z,97253.41
2023-09-07T22:59:08.142Z,97252.41
2023-09-07T23:01:40.037Z,97251.88
2023-09-07T23:04:08.346Z,97252.69
2023-09-07T23:06:36.270Z,97253.59
2023-09-07T23:09:05.053Z,97257.41
2023-09-07T23:11:33.181Z,97260.44
2023-09-07T23:14:00.803Z,97263.13
2023-09-07T23:16:28.517Z,97263.22
2023-09-07T23:18:57.605Z,97256.38
2023-09-07T23:21:25.252Z,97260.91
2023-09-07T23:23:52.880Z,97260.81
2023-09-07T23:26:20.466Z,97269.19
2023-09-07T23:28:48.089Z,97268.06
2023-09-07T23:31:15.663Z,97277.44
2023-09-07T23:33:45.273Z,97266.75
2023-09-07T23:36:14.411Z,97277.94
2023-09-07T23:38:41.887Z,97276.31
2023-09-07T23:41:09.932Z,97280.19
2023-09-07T23:43:37.468Z,97265.66
2023-09-07T23:46:06.579Z,97264.69
2023-09-07T23:48:34.579Z,97274.88
2023-09-07T23:51:02.262Z,97259.25
2023-09-07T23:53:31.176Z,97256.44
2023-09-07T23:55:58.771Z,97270.38
2023-09-07T23:58:26.356Z,97264.03
